Time;durP1;ratioP1;P1;durP2;ratioP2;P2;SDS_P1;SDS_P2;PMS_P1;PMS_P2;Temp;Humidity;BMP_temperature;BMP_pressure;BME280_temperature;BME280_humidity;BME280_pressure;Samples;Min_cycle;Max_cycle;Signal;HPM_P1;HPM_P2
2022/04/04 02:27:40;;;;;;;;;;;;;;;3.70;100.00;100003.59;4967195;23;19927;-77
2022/04/04 02:30:06;;;;;;;;;;;;;;;3.72;100.00;100000.91;4936097;29;19926;-77
2022/04/04 02:32:31;;;;;;;;;;;;;;;3.73;100.00;100002.66;4934840;29;19929;-79
2022/04/04 02:34:57;;;;;;;;;;;;;;;3.76;100.00;100003.50;4936009;29;19919;-77
2022/04/04 02:37:22;;;;;;;;;;;;;;;3.76;100.00;99998.25;4935961;29;19919;-77
2022/04/04 02:39:47;;;;;;;;;;;;;;;3.79;100.00;100000.84;4935738;29;20271;-77
2022/04/04 02:42:13;;;;;;;;;;;;;;;3.80;100.00;99989.47;4934492;29;19979;-78
2022/04/04 02:44:38;;;;;;;;;;;;;;;3.82;100.00;99992.09;4934995;29;19919;-77
2022/04/04 02:47:03;;;;;;;;;;;;;;;3.84;100.00;99999.94;4935667;29;19974;-78
2022/04/04 02:49:29;;;;;;;;;;;;;;;3.86;100.00;99993.78;4935820;29;19954;-77
2022/04/04 02:51:57;;;;;;;;;;;;;;;3.89;100.00;99998.09;4935240;29;19922;-79
2022/04/04 02:54:23;;;;;;;;;;;;;;;3.91;100.00;99994.59;4935663;29;19926;-78
2022/04/04 02:56:48;;;;;;;;;;;;;;;3.91;100.00;99991.09;4934207;29;19919;-78
2022/04/04 02:59:13;;;;;;;;;;;;;;;3.92;100.00;99996.31;4935655;29;19934;-79
2022/04/04 03:01:41;;;;;;;;;;;;;;;3.93;100.00;99987.56;4933786;29;20362;-78
2022/04/04 03:04:06;;;;;;;;;;;;;;;3.94;100.00;99988.44;4935541;29;19970;-78
2022/04/04 03:06:32;;;;;;;;;;;;;;;4.06;100.00;99979.56;4935308;29;19926;-79
2022/04/04 03:08:57;;;;;;;;;;;;;;;4.23;100.00;99992.44;4935263;29;19925;-81
2022/04/04 03:11:22;;;;;;;;;;;;;;;4.22;100.00;99986.31;4934027;29;20389;-81
2022/04/04 03:13:47;;;;;;;;;;;;;;;4.19;100.00;99981.97;4935235;29;20290;-79
2022/04/04 03:16:13;;;;;;;;;;;;;;;4.18;100.00;99980.25;4935164;29;20011;-79
2022/04/04 03:18:38;;;;;;;;;;;;;;;4.17;100.00;99978.50;4933737;29;19951;-82
2022/04/04 03:21:04;;;;;;;;;;;;;;;4.17;100.00;99977.66;4934270;29;19922;-81
2022/04/04 03:23:30;;;;;;;;;;;;;;;4.15;100.00;99975.06;4935130;29;19922;-81
2022/04/04 03:25:55;;;;;;;;;;;;;;;4.17;100.00;99968.03;4933723;29;19923;-81
2022/04/04 03:28:21;;;;;;;;;;;;;;;4.18;100.00;99966.28;4934832;29;20443;-79
2022/04/04 03:30:48;;;;;;;;;;;;;;;4.18;100.00;99968.91;4935125;29;19922;-82
2022/04/04 03:33:15;;;;;;;;;;;;;;;4.17;100.00;99972.41;4935034;29;20274;-81
2022/04/04 03:35:40;;;;;;;;;;;;;;;4.19;100.00;99965.38;4934813;29;19919;-79
2022/04/04 03:38:07;;;;;;;;;;;;;;;4.19;100.00;99960.13;4934165;29;19919;-79
2022/04/04 03:40:33;;;;;;;;;;;;;;;4.21;100.00;99962.72;4933469;29;20059;-80
2022/04/04 07:55:42;;;;;;;;;;;;;;;1.16;80.79;99823.28;4901109;29;20046;-86
2022/04/04 07:58:09;;;;;;;;;;;;;;;1.19;80.55;99817.19;4925552;29;20422;-88
2022/04/04 08:00:35;;;;;;;;;;;;;;;1.15;80.41;99816.34;4924100;29;19927;-88
2022/04/04 08:03:00;;;;;;;;;;;;;;;1.20;80.63;99809.34;4925585;29;19931;-89
2022/04/04 08:05:26;;;;;;;;;;;;;;;1.19;80.56;99810.22;4925343;29;20370;-88
2022/04/04 08:07:52;;;;;;;;;;;;;;;1.20;80.67;99796.28;4937572;29;19923;-87
2022/04/04 08:10:18;;;;;;;;;;;;;;;1.36;82.07;99798.84;4926997;29;20810;-87
2022/04/04 08:12:43;;;;;;;;;;;;;;;1.53;85.47;99798.72;4931814;29;19926;-87
2022/04/04 08:15:10;;;;;;;;;;;;;;;1.55;86.85;99802.22;4940038;29;19974;-88
2022/04/04 08:17:35;;;;;;;;;;;;;;;1.49;87.54;99794.41;4925778;29;19923;-89
2022/04/04 08:20:01;;;;;;;;;;;;;;;1.48;87.94;99790.91;4924848;29;20025;-88
2022/04/04 08:22:26;;;;;;;;;;;;;;;1.47;87.81;99796.16;4924026;29;20011;-86
2022/04/04 08:24:52;;;;;;;;;;;;;;;1.43;87.73;99793.56;4922583;29;20302;-88
2022/04/04 08:27:17;;;;;;;;;;;;;;;1.42;87.51;99785.72;4924474;29;19923;-88
2022/04/04 08:29:42;;;;;;;;;;;;;;;1.44;87.73;99781.38;4923372;29;20362;-87
2022/04/04 08:32:08;;;;;;;;;;;;;;;1.43;87.41;99782.25;4939558;29;19922;-87
2022/04/04 08:34:33;;;;;;;;;;;;;;;1.38;87.36;99784.88;4925039;29;19934;-88
2022/04/04 08:36:58;;;;;;;;;;;;;;;1.42;87.12;99788.34;4923071;29;19919;-90
2022/04/04 08:39:24;;;;;;;;;;;;;;;1.44;86.92;99773.56;4923032;29;19926;-86
2022/04/04 08:41:49;;;;;;;;;;;;;;;1.43;86.80;99777.03;4929663;29;19966;-87
2022/04/04 08:44:15;;;;;;;;;;;;;;;1.43;86.21;99772.66;4925315;29;20393;-88
2022/04/04 08:46:41;;;;;;;;;;;;;;;1.47;86.20;99777.88;4922890;29;19922;-89
2022/04/04 08:49:06;;;;;;;;;;;;;;;1.41;85.61;99768.34;4924988;29;19930;-88
2022/04/04 08:51:32;;;;;;;;;;;;;;;1.44;85.41;99763.09;4929541;29;19969;-89
2022/04/04 08:53:57;;;;;;;;;;;;;;;1.45;85.12;99764.81;4928349;29;19923;-86
2022/04/04 08:56:26;;;;;;;;;;;;;;;1.44;84.84;99763.09;4927724;29;19923;-87
2022/04/04 08:58:52;;;;;;;;;;;;;;;1.44;84.50;99763.97;4928502;29;19970;-85
2022/04/04 09:01:20;;;;;;;;;;;;;;;1.41;84.41;99761.38;4929362;29;20001;-86
2022/04/04 09:04:11;;;;;;;;;;;;;;;1.47;84.28;99759.59;4927430;29;19934;-88
2022/04/04 09:06:46;;;;;;;;;;;;;;;1.48;84.06;99753.50;4927315;29;20410;-87
2022/04/04 09:09:17;;;;;;;;;;;;;;;1.46;83.74;99745.66;4926336;29;19986;-89
2022/04/04 09:11:50;;;;;;;;;;;;;;;1.51;83.45;99749.13;4927758;29;20080;-85
2022/04/04 09:14:20;;;;;;;;;;;;;;;1.51;83.20;99730.84;4932548;29;19926;-89
2022/04/04 09:16:52;;;;;;;;;;;;;;;1.47;82.68;99739.59;4942329;29;20359;-85
2022/04/04 09:19:30;;;;;;;;;;;;;;;1.68;83.39;99735.94;4932508;29;20275;-84
2022/04/04 09:21:56;;;;;;;;;;;;;;;1.70;85.00;99734.19;4926087;29;20843;-85
2022/04/04 09:24:44;;;;;;;;;;;;;;;1.76;86.44;99726.31;4924447;29;19930;-84
2022/04/04 09:27:16;;;;;;;;;;;;;;;1.77;87.17;99721.94;4933875;29;19933;-90
2022/04/04 09:29:42;;;;;;;;;;;;;;;1.80;86.93;99708.84;4926643;29;19985;-86
2022/04/04 09:32:14;;;;;;;;;;;;;;;1.80;86.46;99703.63;4927414;29;19927;-86
2022/04/04 09:35:08;;;;;;;;;;;;;;;1.75;86.56;99692.34;4926472;29;19974;-87
2022/04/04 09:37:34;;;;;;;;;;;;;;;1.71;86.37;99701.97;4921132;29;20037;-86
2022/04/04 09:40:09;;;;;;;;;;;;;;;1.73;86.07;99699.34;4923008;29;20018;-89
2022/04/04 09:42:34;;;;;;;;;;;;;;;1.72;85.85;99693.22;4927827;29;19931;-85
2022/04/04 09:45:02;;;;;;;;;;;;;;;1.73;85.82;99686.28;4928128;29;20382;-86
2022/04/04 09:47:50;;;;;;;;;;;;;;;1.68;85.56;99678.47;4926058;29;20342;-85
2022/04/04 09:50:32;;;;;;;;;;;;;;;1.71;85.31;99673.22;4920988;29;20362;-86
2022/04/04 09:52:59;;;;;;;;;;;;;;;1.77;84.31;99678.41;4926475;29;20374;-87
2022/04/04 09:55:28;;;;;;;;;;;;;;;1.76;83.75;99678.41;4925821;29;19934;-89
2022/04/04 09:57:54;;;;;;;;;;;;;;;1.73;83.64;99687.13;4926497;29;19930;-87
2022/04/04 10:00:20;;;;;;;;;;;;;;;1.76;83.61;99662.75;4925491;29;20294;-87
2022/04/04 10:02:46;;;;;;;;;;;;;;;1.69;83.40;99653.22;4926641;29;20322;-85
2022/04/04 10:05:11;;;;;;;;;;;;;;;1.75;82.95;99646.19;4927923;29;19929;-84
2022/04/04 10:07:36;;;;;;;;;;;;;;;1.69;82.51;99648.00;4930426;29;19920;-85
2022/04/04 10:10:02;;;;;;;;;;;;;;;1.84;82.85;99652.22;4926596;29;19923;-87
2022/04/04 10:12:27;;;;;;;;;;;;;;;2.25;86.73;99643.97;4925834;29;19975;-86
2022/04/04 10:14:52;;;;;;;;;;;;;;;2.30;88.13;99638.69;4924914;29;19918;-88
2022/04/04 10:17:18;;;;;;;;;;;;;;;2.51;90.42;99637.56;4925063;29;19931;-87
2022/04/04 10:19:44;;;;;;;;;;;;;;;2.72;93.01;99629.41;4927730;29;20022;-85
2022/04/04 10:22:10;;;;;;;;;;;;;;;2.67;93.58;99630.38;4940600;29;19923;-84
2022/04/04 10:24:38;;;;;;;;;;;;;;;2.54;93.36;99625.28;4924075;29;20385;-89
2022/04/04 10:27:03;;;;;;;;;;;;;;;2.45;92.60;99621.94;4940384;29;19994;-86
2022/04/04 10:29:37;;;;;;;;;;;;;;;2.45;91.43;99608.84;4927227;29;20382;-86
2022/04/04 10:32:03;;;;;;;;;;;;;;;2.41;90.69;99607.16;4931769;29;19979;-88
2022/04/04 10:34:28;;;;;;;;;;;;;;;2.39;89.92;99612.41;4926659;29;20294;-87
2022/04/04 10:37:01;;;;;;;;;;;;;;;2.38;89.61;99615.03;4926685;29;20025;-88
2022/04/04 10:39:40;;;;;;;;;;;;;;;2.33;89.47;99615.97;4923418;29;19923;-86
2022/04/04 10:42:23;;;;;;;;;;;;;;;2.29;89.44;99600.34;4932337;29;19966;-85
2022/04/04 10:44:50;;;;;;;;;;;;;;;2.29;89.18;99587.25;4925739;29;19927;-88
2022/04/04 10:47:22;;;;;;;;;;;;;;;2.24;88.94;99587.31;4924090;29;19933;-86
2022/04/04 10:49:48;;;;;;;;;;;;;;;2.26;88.57;99588.16;4923897;29;19937;-88
2022/04/04 10:52:16;;;;;;;;;;;;;;;2.22;88.37;99576.00;4931884;29;19930;-87
2022/04/04 10:54:41;;;;;;;;;;;;;;;2.17;88.03;99567.34;4921957;29;19971;-87
2022/04/04 10:57:17;;;;;;;;;;;;;;;2.21;87.69;99571.66;4926275;29;20331;-87
2022/04/04 10:59:46;;;;;;;;;;;;;;;2.24;87.33;99579.47;4926468;29;19930;-88
2022/04/04 11:02:13;;;;;;;;;;;;;;;2.21;87.12;99576.88;4926466;29;20291;-87
2022/04/04 11:07:38;;;;;;;;;;;;;;;2.21;86.56;99569.03;4923879;29;19994;-87
2022/04/04 11:10:08;;;;;;;;;;;;;;;2.27;85.60;99552.44;4942145;29;20549;-87
2022/04/04 11:12:52;;;;;;;;;;;;;;;2.25;85.13;99560.28;4939977;29;19919;-85
2022/04/04 11:15:17;;;;;;;;;;;;;;;2.25;84.35;99548.94;4925106;29;19927;-84
2022/04/04 11:18:09;;;;;;;;;;;;;;;2.25;83.95;99528.91;4925646;29;19926;-86
2022/04/04 11:20:36;;;;;;;;;;;;;;;2.28;83.38;99539.34;4924315;29;20013;-85
2022/04/04 11:23:08;;;;;;;;;;;;;;;2.32;82.73;99529.69;4923722;29;19933;-85
2022/04/04 11:25:34;;;;;;;;;;;;;;;2.68;86.52;99520.47;4926341;29;19931;-86
2022/04/04 11:28:02;;;;;;;;;;;;;;;2.92;89.26;99526.22;4924969;29;19942;-86
2022/04/04 11:30:27;;;;;;;;;;;;;;;2.81;89.37;99523.75;4937898;29;19923;-88
2022/04/04 11:33:21;;;;;;;;;;;;;;;2.80;88.96;99518.56;4931755;29;19923;-86
2022/04/04 11:35:42;;;;;;;;;;;;;;;2.75;88.56;99516.00;4925556;29;19922;-86
2022/04/04 11:38:11;;;;;;;;;;;;;;;2.72;88.27;99508.19;4924377;29;19975;-86
2022/04/04 11:40:38;;;;;;;;;;;;;;;2.76;88.86;99498.53;4923602;29;19926;-85
2022/04/04 11:43:05;;;;;;;;;;;;;;;2.93;90.58;99501.75;4924110;29;20010;-85
2022/04/04 11:45:39;;;;;;;;;;;;;;;2.90;90.83;99507.03;4926322;29;19927;-87
2022/04/04 11:48:06;;;;;;;;;;;;;;;2.94;89.75;99495.63;4924145;29;20379;-87
2022/04/04 11:50:35;;;;;;;;;;;;;;;2.86;89.15;99494.91;4930214;29;19923;-86
2022/04/04 11:53:02;;;;;;;;;;;;;;;2.85;88.46;99490.53;4924074;29;19923;-85
2022/04/04 11:55:28;;;;;;;;;;;;;;;2.80;87.98;99487.16;4939107;29;19927;-86
2022/04/04 11:57:57;;;;;;;;;;;;;;;2.80;87.77;99490.63;4923266;29;20533;-86
2022/04/04 12:00:23;;;;;;;;;;;;;;;2.80;87.73;99481.91;4926007;29;19923;-86
2022/04/04 12:02:49;;;;;;;;;;;;;;;2.76;87.56;99462.78;4926064;29;19923;-86
2022/04/04 12:05:16;;;;;;;;;;;;;;;2.85;86.63;99465.22;4924526;29;19946;-87
2022/04/04 12:07:42;;;;;;;;;;;;;;;2.82;85.92;99462.66;4922001;29;20291;-86
2022/04/04 12:10:08;;;;;;;;;;;;;;;2.80;85.74;99460.97;4923149;29;19950;-87
2022/04/04 12:12:33;;;;;;;;;;;;;;;2.86;85.46;99460.88;4924057;29;20380;-85
2022/04/04 12:14:59;;;;;;;;;;;;;;;2.81;85.34;99457.44;4924348;29;19927;-86
2022/04/04 12:17:24;;;;;;;;;;;;;;;2.78;85.61;99445.31;4938827;29;20392;-86
2022/04/04 12:19:50;;;;;;;;;;;;;;;2.83;85.21;99453.09;4923894;29;19930;-85
2022/04/04 12:25:01;;;;;;;;;;;;;;;2.87;83.99;99439.03;4926866;29;20299;-86
2022/04/04 12:27:27;;;;;;;;;;;;;;;2.85;83.99;99441.69;4928730;29;20434;-85
2022/04/04 12:29:59;;;;;;;;;;;;;;;2.82;84.24;99414.72;4929235;29;20022;-85
2022/04/04 12:32:25;;;;;;;;;;;;;;;2.93;83.73;99430.22;4941922;29;20025;-86
2022/04/04 12:35:01;;;;;;;;;;;;;;;2.95;82.33;99416.22;4928172;29;20414;-87
2022/04/04 12:37:32;;;;;;;;;;;;;;;2.98;81.03;99420.53;4940883;29;19969;-85
2022/04/04 12:40:16;;;;;;;;;;;;;;;2.94;80.88;99413.66;4928402;29;19927;-85
2022/04/04 12:42:43;;;;;;;;;;;;;;;3.12;80.49;99407.22;4926883;29;19930;-76
2022/04/04 12:45:08;;;;;;;;;;;;;;;3.91;76.43;99404.75;4927832;29;20025;-85
2022/04/04 12:47:34;;;;;;;;;;;;;;;3.36;78.20;99406.72;4926920;29;19992;-85
2022/04/04 12:50:12;;;;;;;;;;;;;;;3.19;79.56;99408.81;4927972;29;20013;-84
2022/04/04 12:52:54;;;;;;;;;;;;;;;3.33;82.04;99408.56;4925905;29;19965;-84
2022/04/04 12:55:19;;;;;;;;;;;;;;;3.43;85.66;99410.97;4927086;29;19941;-81
2022/04/04 12:57:45;;;;;;;;;;;;;;;3.50;88.11;99408.22;4926553;29;20013;-83
2022/04/04 13:00:10;;;;;;;;;;;;;;;3.50;89.41;99411.69;4926801;29;19926;-84
2022/04/04 13:02:38;;;;;;;;;;;;;;;3.45;90.09;99390.84;4928099;29;20450;-85
2022/04/04 13:05:13;;;;;;;;;;;;;;;3.41;90.88;99373.44;4929157;29;19938;-82
2022/04/04 13:07:47;;;;;;;;;;;;;;;3.32;91.68;99384.13;4925930;29;20051;-86
2022/04/04 13:10:13;;;;;;;;;;;;;;;3.23;92.07;99392.16;4928389;29;19926;-85
2022/04/04 13:12:41;;;;;;;;;;;;;;;3.20;92.70;99379.97;4927991;29;19973;-85
2022/04/04 13:15:07;;;;;;;;;;;;;;;3.17;93.22;99368.69;4927185;29;19930;-84
2022/04/04 13:17:34;;;;;;;;;;;;;;;3.11;93.89;99374.06;4928589;29;19926;-86
2022/04/04 13:19:59;;;;;;;;;;;;;;;3.08;94.50;99365.38;4925696;29;19958;-85
2022/04/04 13:22:24;;;;;;;;;;;;;;;3.11;95.55;99361.81;4927110;29;19969;-84
2022/04/04 13:24:49;;;;;;;;;;;;;;;3.08;96.78;99375.00;4926415;29;19934;-86
2022/04/04 13:27:22;;;;;;;;;;;;;;;3.15;98.30;99354.78;4933772;29;19919;-86
2022/04/04 13:29:47;;;;;;;;;;;;;;;3.37;100.00;99361.31;4927793;29;19923;-84
2022/04/04 13:32:12;;;;;;;;;;;;;;;3.54;100.00;99360.97;4926508;29;19927;-85
2022/04/04 13:34:38;;;;;;;;;;;;;;;3.66;100.00;99352.00;4926604;29;19931;-84
2022/04/04 13:37:03;;;;;;;;;;;;;;;3.73;100.00;99364.03;4926998;29;19927;-83
2022/04/04 13:39:28;;;;;;;;;;;;;;;3.79;100.00;99348.19;4926705;29;19926;-87
2022/04/04 13:41:53;;;;;;;;;;;;;;;3.84;100.00;99365.59;4926042;29;19931;-87
2022/04/04 13:44:19;;;;;;;;;;;;;;;3.89;100.00;99358.47;4926552;29;19934;-84
2022/04/04 13:46:44;;;;;;;;;;;;;;;3.93;100.00;99358.38;4933335;29;19915;-83
2022/04/04 13:49:09;;;;;;;;;;;;;;;3.92;100.00;99363.66;4926714;29;19929;-84
2022/04/04 13:51:35;;;;;;;;;;;;;;;3.97;100.00;99353.91;4931490;29;19918;-83
2022/04/04 13:54:02;;;;;;;;;;;;;;;4.02;100.00;99365.19;4940283;29;19931;-85
2022/04/04 13:56:28;;;;;;;;;;;;;;;4.04;100.00;99363.38;4926655;29;19930;-85
2022/04/04 13:58:54;;;;;;;;;;;;;;;4.09;100.00;99360.66;4925696;29;19988;-84
2022/04/04 14:01:21;;;;;;;;;;;;;;;4.11;100.00;99354.47;4926905;29;19970;-83
2022/04/04 14:03:46;;;;;;;;;;;;;;;4.14;100.00;99359.63;4926991;29;20473;-83
2022/04/04 14:06:12;;;;;;;;;;;;;;;4.18;100.00;99357.81;4925871;29;19938;-84
2022/04/04 14:08:37;;;;;;;;;;;;;;;4.19;100.00;99373.50;4924645;29;19925;-84
2022/04/04 14:11:07;;;;;;;;;;;;;;;4.23;100.00;99363.81;4942908;29;19922;-84
2022/04/04 14:13:40;;;;;;;;;;;;;;;4.25;100.00;99362.00;4941643;29;20294;-83
2022/04/04 14:16:05;;;;;;;;;;;;;;;4.26;100.00;99358.50;4942395;28;20078;-81
2022/04/04 14:18:31;;;;;;;;;;;;;;;4.29;100.00;99347.94;4933334;29;20438;-86
2022/04/04 14:20:57;;;;;;;;;;;;;;;4.29;100.00;99352.31;4925646;29;20042;-83
2022/04/04 14:23:22;;;;;;;;;;;;;;;4.32;100.00;99339.13;4924223;29;20025;-83
2022/04/04 14:25:48;;;;;;;;;;;;;;;4.31;100.00;99340.88;4933335;29;19965;-83
2022/04/04 14:28:13;;;;;;;;;;;;;;;4.31;100.00;99340.03;4926165;29;19934;-87
2022/04/04 14:30:39;;;;;;;;;;;;;;;3.58;100.00;99330.34;4926186;29;19926;-86
2022/04/04 14:33:04;;;;;;;;;;;;;;;3.25;100.00;99335.38;4925966;29;19929;-87
2022/04/04 14:35:29;;;;;;;;;;;;;;;3.11;100.00;99312.06;4926450;29;19919;-82
2022/04/04 14:37:54;;;;;;;;;;;;;;;3.01;100.00;99306.16;4922795;29;20013;-86
2022/04/04 14:40:20;;;;;;;;;;;;;;;2.96;100.00;99318.47;4925745;29;19950;-83
2022/04/04 14:42:45;;;;;;;;;;;;;;;2.91;100.00;99320.34;4925976;29;19923;-83
2022/04/04 14:45:11;;;;;;;;;;;;;;;2.82;100.00;99308.28;4925186;29;19967;-82
2022/04/04 14:47:37;;;;;;;;;;;;;;;2.76;100.00;99305.78;4925119;29;20422;-86
2022/04/04 14:50:07;;;;;;;;;;;;;;;2.77;100.00;99306.66;4939246;29;19923;-81
2022/04/04 14:52:33;;;;;;;;;;;;;;;2.72;100.00;99304.13;4924451;29;19995;-86
2022/04/04 14:54:59;;;;;;;;;;;;;;;2.67;99.95;99296.34;4926196;29;19958;-87
2022/04/04 14:57:24;;;;;;;;;;;;;;;2.66;99.53;99309.47;4925441;29;19969;-83
2022/04/04 14:59:49;;;;;;;;;;;;;;;2.62;99.17;99305.19;4924283;29;20411;-81
2022/04/04 15:02:14;;;;;;;;;;;;;;;2.64;98.55;99306.00;4925063;29;19966;-82
2022/04/04 15:04:40;;;;;;;;;;;;;;;2.62;98.17;99300.81;4924529;29;19923;-86
2022/04/04 15:07:05;;;;;;;;;;;;;;;2.65;97.23;99294.63;4924705;29;19925;-83
2022/04/04 15:09:31;;;;;;;;;;;;;;;2.58;96.77;99291.28;4921192;29;20006;-85
2022/04/04 15:11:56;;;;;;;;;;;;;;;2.56;96.22;99293.06;4923672;29;19973;-81
2022/04/04 15:14:21;;;;;;;;;;;;;;;2.58;95.88;99299.13;4923631;29;19951;-86
2022/04/04 15:16:48;;;;;;;;;;;;;;;2.53;95.42;99280.91;4923834;29;19930;-82
2022/04/04 15:19:14;;;;;;;;;;;;;;;2.49;94.91;99279.25;4924793;29;20047;-84
2022/04/04 15:21:39;;;;;;;;;;;;;;;2.50;94.36;99272.25;4922724;29;20358;-81
2022/04/04 15:24:05;;;;;;;;;;;;;;;2.49;93.96;99271.41;4923563;29;19923;-86
2022/04/04 15:26:32;;;;;;;;;;;;;;;2.41;93.74;99282.88;4924917;29;19931;-81
2022/04/04 15:28:57;;;;;;;;;;;;;;;2.41;93.66;99268.06;4932667;29;19922;-84
2022/04/04 15:31:24;;;;;;;;;;;;;;;2.36;93.24;99270.75;4923502;29;19927;-87
2022/04/04 15:33:49;;;;;;;;;;;;;;;2.36;92.68;99262.91;4924078;29;19970;-90
2022/04/04 15:36:19;;;;;;;;;;;;;;;2.44;92.17;99267.13;4924607;29;19923;-87
2022/04/04 15:38:45;;;;;;;;;;;;;;;2.38;91.76;99273.34;4924551;29;20021;-87
2022/04/04 15:41:10;;;;;;;;;;;;;;;2.34;91.54;99277.75;4925343;29;20174;-88
2022/04/04 15:43:35;;;;;;;;;;;;;;;2.34;91.25;99264.66;4925370;29;19920;-85
2022/04/04 15:46:00;;;;;;;;;;;;;;;2.35;90.64;99274.25;4930991;29;19939;-85
2022/04/04 15:48:28;;;;;;;;;;;;;;;2.33;90.29;99276.03;4925349;29;19927;-86
2022/04/04 15:50:54;;;;;;;;;;;;;;;2.31;89.89;99272.59;4925026;29;19923;-87
2022/04/04 15:53:19;;;;;;;;;;;;;;;2.27;89.96;99265.69;4929886;29;19930;-83
2022/04/04 15:55:44;;;;;;;;;;;;;;;2.25;89.89;99269.19;4924848;29;19927;-89
2022/04/04 15:58:09;;;;;;;;;;;;;;;2.23;89.69;99279.69;4925021;29;19919;-79
2022/04/04 16:00:37;;;;;;;;;;;;;;;2.26;89.49;99279.63;4923937;29;19965;-83
2022/04/04 16:03:03;;;;;;;;;;;;;;;2.22;89.38;99280.59;4924749;29;19931;-83
2022/04/04 16:05:29;;;;;;;;;;;;;;;2.19;89.38;99272.81;4923750;29;19923;-86
2022/04/04 16:07:54;;;;;;;;;;;;;;;2.23;89.41;99264.00;4922510;29;19957;-85
2022/04/04 16:10:19;;;;;;;;;;;;;;;2.21;89.37;99263.16;4937997;29;20002;-83
2022/04/04 16:12:45;;;;;;;;;;;;;;;2.19;89.18;99267.56;4925138;29;19966;-81
2022/04/04 16:15:10;;;;;;;;;;;;;;;2.20;89.06;99264.06;4924360;29;19930;-86
2022/04/04 16:17:36;;;;;;;;;;;;;;;2.15;88.82;99265.88;4924951;29;20469;-81
2022/04/04 16:20:01;;;;;;;;;;;;;;;2.15;88.66;99272.00;4924278;29;19923;-81
2022/04/04 16:22:26;;;;;;;;;;;;;;;2.14;88.69;99274.63;4922851;29;19930;-83
2022/04/04 16:24:51;;;;;;;;;;;;;;;2.14;88.62;99272.03;4924355;29;20013;-83
2022/04/04 16:27:17;;;;;;;;;;;;;;;2.11;88.47;99264.22;4924605;29;19926;-82
2022/04/04 16:29:42;;;;;;;;;;;;;;;2.16;88.24;99265.84;4924656;29;19929;-80
2022/04/04 16:32:08;;;;;;;;;;;;;;;2.10;88.32;99265.97;4924680;29;19993;-80
2022/04/04 16:34:33;;;;;;;;;;;;;;;2.09;88.37;99258.16;4925211;29;19926;-83
2022/04/04 16:36:58;;;;;;;;;;;;;;;2.10;88.03;99262.50;4923078;29;19919;-81
2022/04/04 16:39:24;;;;;;;;;;;;;;;2.10;87.90;99279.03;4923366;29;20406;-82
2022/04/04 16:41:50;;;;;;;;;;;;;;;2.10;87.83;99268.56;4923890;29;19919;-85
2022/04/04 16:44:15;;;;;;;;;;;;;;;2.09;87.73;99276.44;4925218;29;19927;-85
2022/04/04 16:46:40;;;;;;;;;;;;;;;2.10;87.49;99268.56;4925846;29;19919;-81
2022/04/04 16:49:07;;;;;;;;;;;;;;;2.08;87.60;99277.34;4929726;29;19973;-84
2022/04/04 16:51:33;;;;;;;;;;;;;;;2.04;87.69;99278.28;4926136;29;20340;-82
2022/04/04 16:53:58;;;;;;;;;;;;;;;2.06;87.58;99282.59;4923535;29;19934;-84
2022/04/04 16:56:25;;;;;;;;;;;;;;;2.04;87.26;99275.66;4939416;29;19926;-84
2022/04/04 16:58:50;;;;;;;;;;;;;;;2.07;87.12;99286.06;4924627;29;19974;-79
2022/04/04 17:01:15;;;;;;;;;;;;;;;2.05;87.11;99285.22;4924568;29;19923;-82
2022/04/04 17:03:41;;;;;;;;;;;;;;;2.05;87.20;99298.31;4925173;29;19983;-83
2022/04/04 17:06:06;;;;;;;;;;;;;;;2.06;87.08;99302.63;4924251;29;19923;-84
2022/04/04 17:08:31;;;;;;;;;;;;;;;2.05;87.03;99299.16;4923145;29;19923;-84
2022/04/04 17:11:00;;;;;;;;;;;;;;;2.05;86.88;99290.47;4925836;29;19929;-86
2022/04/04 17:13:25;;;;;;;;;;;;;;;2.05;86.92;99293.94;4928500;29;19923;-85
2022/04/04 17:15:51;;;;;;;;;;;;;;;2.05;86.76;99300.91;4927844;29;19925;-82
2022/04/04 17:18:16;;;;;;;;;;;;;;;2.05;86.56;99283.47;4927154;29;19927;-83
2022/04/04 17:20:43;;;;;;;;;;;;;;;2.08;86.56;99285.19;4927751;29;19919;-80
2022/04/04 17:23:12;;;;;;;;;;;;;;;2.06;86.51;99287.81;4926506;29;19923;-81
2022/04/04 17:25:37;;;;;;;;;;;;;;;2.07;86.08;99283.44;4928315;29;19923;-84
2022/04/04 17:28:06;;;;;;;;;;;;;;;2.08;86.18;99287.81;4926303;29;19927;-81
2022/04/04 17:30:31;;;;;;;;;;;;;;;2.00;86.22;99278.31;4927308;29;19945;-83
2022/04/04 17:32:57;;;;;;;;;;;;;;;2.07;86.15;99280.84;4927495;29;20374;-85
2022/04/04 17:35:22;;;;;;;;;;;;;;;2.06;86.07;99274.75;4926291;29;20026;-85
2022/04/04 17:37:48;;;;;;;;;;;;;;;2.05;86.03;99269.56;4932541;29;19919;-81
2022/04/04 17:40:14;;;;;;;;;;;;;;;2.00;85.87;99275.69;4926786;29;20021;-84
2022/04/04 17:42:40;;;;;;;;;;;;;;;2.03;85.66;99276.53;4926842;29;19927;-82
2022/04/04 17:45:05;;;;;;;;;;;;;;;2.02;85.56;99274.81;4926829;29;19922;-81
2022/04/04 17:47:31;;;;;;;;;;;;;;;2.03;85.40;99268.69;4942714;29;19970;-84
2022/04/04 17:49:56;;;;;;;;;;;;;;;2.02;85.26;99273.06;4926937;29;20398;-83
2022/04/04 17:52:21;;;;;;;;;;;;;;;1.99;85.28;99281.84;4925030;29;20006;-81
2022/04/04 17:54:46;;;;;;;;;;;;;;;2.00;85.12;99274.84;4927176;29;19923;-83
2022/04/04 17:57:12;;;;;;;;;;;;;;;1.99;85.08;99271.38;4925848;29;19923;-82
2022/04/04 17:59:37;;;;;;;;;;;;;;;2.04;84.97;99271.28;4927263;29;19923;-84
2022/04/04 18:02:04;;;;;;;;;;;;;;;2.00;84.96;99267.88;4927009;29;19927;-84
2022/04/04 18:04:29;;;;;;;;;;;;;;;2.00;85.00;99272.25;4924063;29;19922;-82
2022/04/04 18:06:55;;;;;;;;;;;;;;;2.02;84.71;99264.38;4926160;29;20302;-84
2022/04/04 18:09:21;;;;;;;;;;;;;;;2.02;84.76;99264.38;4925573;29;20025;-84
2022/04/04 18:11:52;;;;;;;;;;;;;;;1.99;84.44;99265.28;4925736;29;19923;-85
2022/04/04 18:14:19;;;;;;;;;;;;;;;1.98;84.52;99267.03;4928693;29;20335;-83
2022/04/04 18:16:45;;;;;;;;;;;;;;;1.99;84.32;99260.94;4925471;29;20771;-84
2022/04/04 18:19:11;;;;;;;;;;;;;;;1.97;84.13;99264.44;4926595;29;19926;-86
2022/04/04 18:21:36;;;;;;;;;;;;;;;1.97;83.99;99275.75;4925439;29;19931;-84
2022/04/04 18:24:01;;;;;;;;;;;;;;;1.99;84.18;99280.94;4925215;29;19930;-83
2022/04/04 18:26:29;;;;;;;;;;;;;;;1.98;84.03;99284.47;4926435;29;20327;-83
2022/04/04 18:28:54;;;;;;;;;;;;;;;2.02;84.14;99296.59;4926875;29;19994;-85
2022/04/04 18:31:19;;;;;;;;;;;;;;;2.02;84.04;99293.97;4926503;29;19919;-86
2022/04/04 18:33:45;;;;;;;;;;;;;;;2.04;84.12;99286.97;4926300;28;19931;-81
2022/04/04 18:36:10;;;;;;;;;;;;;;;2.07;84.09;99283.44;4925407;29;19977;-81
2022/04/04 18:38:36;;;;;;;;;;;;;;;2.07;84.17;99286.91;4924972;29;19927;-82
2022/04/04 18:41:01;;;;;;;;;;;;;;;2.05;83.81;99287.84;4932780;29;19919;-83
2022/04/04 18:43:28;;;;;;;;;;;;;;;2.08;83.58;99290.41;4926032;29;20259;-81
2022/04/04 18:45:57;;;;;;;;;;;;;;;2.05;83.79;99282.63;4925385;29;20330;-85
2022/04/04 18:48:22;;;;;;;;;;;;;;;2.02;83.56;99280.06;4926203;29;20446;-87
2022/04/04 18:50:47;;;;;;;;;;;;;;;2.04;83.35;99270.44;4927427;29;20010;-82
2022/04/04 18:53:12;;;;;;;;;;;;;;;2.02;83.00;99290.50;4925340;29;19962;-83
2022/04/04 18:55:38;;;;;;;;;;;;;;;2.03;83.00;99266.09;4925964;29;20014;-83
2022/04/04 18:58:03;;;;;;;;;;;;;;;2.09;82.72;99266.88;4925811;29;19930;-84
2022/04/04 19:00:28;;;;;;;;;;;;;;;2.06;82.47;99263.41;4925847;29;19923;-82
2022/04/04 19:02:53;;;;;;;;;;;;;;;2.07;82.42;99266.00;4926399;29;19930;-83
2022/04/04 19:05:19;;;;;;;;;;;;;;;2.04;82.30;99266.06;4926068;29;19926;-83
2022/04/04 19:07:44;;;;;;;;;;;;;;;2.07;82.17;99265.16;4924496;29;19927;-81
2022/04/04 19:10:09;;;;;;;;;;;;;;;2.09;81.95;99255.53;4925883;29;19926;-82
2022/04/04 19:12:36;;;;;;;;;;;;;;;2.11;81.80;99264.22;4925494;29;20039;-82
2022/04/04 19:15:02;;;;;;;;;;;;;;;2.07;81.77;99259.94;4926715;29;19971;-83
2022/04/04 19:17:27;;;;;;;;;;;;;;;2.09;81.85;99255.53;4925524;29;19962;-83
2022/04/04 19:19:52;;;;;;;;;;;;;;;2.10;81.93;99252.03;4926094;29;19918;-82
2022/04/04 19:22:18;;;;;;;;;;;;;;;2.14;81.91;99256.34;4923929;29;20026;-83
2022/04/04 19:24:44;;;;;;;;;;;;;;;2.12;81.99;99260.72;4925922;29;19930;-82
2022/04/04 19:27:10;;;;;;;;;;;;;;;2.11;81.80;99264.22;4927247;29;20406;-82
2022/04/04 19:29:36;;;;;;;;;;;;;;;2.09;81.51;99266.88;4925166;29;19920;-85
2022/04/04 19:32:03;;;;;;;;;;;;;;;2.10;81.32;99267.72;4926723;29;19923;-81
2022/04/04 19:34:29;;;;;;;;;;;;;;;2.11;81.24;99274.69;4924609;29;19922;-82
2022/04/04 19:36:54;;;;;;;;;;;;;;;2.08;81.24;99275.59;4926298;29;19942;-83
2022/04/04 19:39:19;;;;;;;;;;;;;;;2.11;80.89;99277.28;4924263;29;19919;-85